sensor_id;sensor_type;location;lat;lon;timestamp;P1;durP1;ratioP1;P2;durP2;ratioP2
77026;SDS011;65956;52.986;17.490;2023-05-10T01:02:25;6.50;;;3.40;;
77026;SDS011;65956;52.986;17.490;2023-05-10T01:04:51;6.20;;;3.60;;
77026;SDS011;65956;52.986;17.490;2023-05-10T01:07:18;6.20;;;3.60;;
77026;SDS011;65956;52.986;17.490;2023-05-10T01:09:44;8.60;;;4.30;;
77026;SDS011;65956;52.986;17.490;2023-05-10T01:12:11;7.80;;;3.50;;
77026;SDS011;65956;52.986;17.490;2023-05-10T01:14:37;8.30;;;3.80;;
77026;SDS011;65956;52.986;17.490;2023-05-10T01:17:03;9.30;;;4.20;;
77026;SDS011;65956;52.986;17.490;2023-05-10T01:19:31;10.10;;;4.30;;
77026;SDS011;65956;52.986;17.490;2023-05-10T01:22:22;7.40;;;3.60;;
77026;SDS011;65956;52.986;17.490;2023-05-10T01:38:17;7.60;;;3.80;;
77026;SDS011;65956;52.986;17.490;2023-05-10T01:43:50;10.10;;;4.90;;
77026;SDS011;65956;52.986;17.490;2023-05-10T01:46:39;10.90;;;4.30;;
77026;SDS011;65956;52.986;17.490;2023-05-10T01:49:11;9.80;;;4.30;;
77026;SDS011;65956;52.986;17.490;2023-05-10T01:51:47;10.40;;;4.60;;
77026;SDS011;65956;52.986;17.490;2023-05-10T01:54:19;10.00;;;4.40;;
77026;SDS011;65956;52.986;17.490;2023-05-10T01:56:52;10.60;;;4.30;;
77026;SDS011;65956;52.986;17.490;2023-05-10T01:59:25;10.90;;;4.40;;
77026;SDS011;65956;52.986;17.490;2023-05-10T02:01:55;8.40;;;4.60;;
77026;SDS011;65956;52.986;17.490;2023-05-10T02:04:24;9.80;;;4.70;;
77026;SDS011;65956;52.986;17.490;2023-05-10T02:06:51;8.40;;;4.10;;
77026;SDS011;65956;52.986;17.490;2023-05-10T02:09:20;11.40;;;4.70;;
77026;SDS011;65956;52.986;17.490;2023-05-10T02:11:48;7.10;;;4.00;;
77026;SDS011;65956;52.986;17.490;2023-05-10T02:14:15;9.50;;;4.10;;
77026;SDS011;65956;52.986;17.490;2023-05-10T02:16:44;8.40;;;4.40;;
77026;SDS011;65956;52.986;17.490;2023-05-10T02:19:11;8.80;;;4.70;;
77026;SDS011;65956;52.986;17.490;2023-05-10T02:21:40;8.00;;;4.20;;
77026;SDS011;65956;52.986;17.490;2023-05-10T02:24:07;8.10;;;3.90;;
77026;SDS011;65956;52.986;17.490;2023-05-10T02:26:35;8.60;;;4.00;;
77026;SDS011;65956;52.986;17.490;2023-05-10T02:29:03;8.80;;;4.30;;
77026;SDS011;65956;52.986;17.490;2023-05-10T02:31:33;7.10;;;4.30;;
77026;SDS011;65956;52.986;17.490;2023-05-10T02:34:01;7.90;;;4.10;;
77026;SDS011;65956;52.986;17.490;2023-05-10T02:36:28;8.00;;;4.00;;
77026;SDS011;65956;52.986;17.490;2023-05-10T02:38:55;8.10;;;4.10;;
77026;SDS011;65956;52.986;17.490;2023-05-10T02:41:23;9.80;;;4.60;;
77026;SDS011;65956;52.986;17.490;2023-05-10T02:43:51;8.70;;;4.50;;
77026;SDS011;65956;52.986;17.490;2023-05-10T02:46:23;10.10;;;4.70;;
77026;SDS011;65956;52.986;17.490;2023-05-10T02:48:49;9.20;;;4.50;;
77026;SDS011;65956;52.986;17.490;2023-05-10T02:51:15;9.70;;;4.60;;
77026;SDS011;65956;52.986;17.490;2023-05-10T02:53:44;8.30;;;4.10;;
77026;SDS011;65956;52.986;17.490;2023-05-10T02:56:14;7.90;;;4.30;;
77026;SDS011;65956;52.986;17.490;2023-05-10T02:58:45;9.60;;;4.10;;
77026;SDS011;65956;52.986;17.490;2023-05-10T03:01:12;10.60;;;4.60;;
77026;SDS011;65956;52.986;17.490;2023-05-10T03:03:38;9.50;;;4.70;;
77026;SDS011;65956;52.986;17.490;2023-05-10T03:06:04;11.10;;;5.00;;
77026;SDS011;65956;52.986;17.490;2023-05-10T03:08:30;7.30;;;4.70;;
77026;SDS011;65956;52.986;17.490;2023-05-10T03:11:15;10.10;;;5.20;;
77026;SDS011;65956;52.986;17.490;2023-05-10T03:16:16;8.50;;;5.20;;
77026;SDS011;65956;52.986;17.490;2023-05-10T03:18:53;9.10;;;4.80;;
77026;SDS011;65956;52.986;17.490;2023-05-10T03:21:22;8.30;;;3.80;;
77026;SDS011;65956;52.986;17.490;2023-05-10T03:24:01;9.50;;;4.30;;
77026;SDS011;65956;52.986;17.490;2023-05-10T03:26:32;7.60;;;4.20;;
77026;SDS011;65956;52.986;17.490;2023-05-10T03:29:07;8.50;;;4.90;;
77026;SDS011;65956;52.986;17.490;2023-05-10T03:31:34;9.00;;;4.70;;
77026;SDS011;65956;52.986;17.490;2023-05-10T03:34:01;8.60;;;4.60;;
77026;SDS011;65956;52.986;17.490;2023-05-10T03:36:27;10.00;;;4.30;;
77026;SDS011;65956;52.986;17.490;2023-05-10T03:38:54;10.40;;;5.10;;
77026;SDS011;65956;52.986;17.490;2023-05-10T03:41:20;7.90;;;4.00;;
77026;SDS011;65956;52.986;17.490;2023-05-10T03:43:47;7.60;;;4.50;;
77026;SDS011;65956;52.986;17.490;2023-05-10T03:46:13;8.40;;;4.00;;
77026;SDS011;65956;52.986;17.490;2023-05-10T03:48:39;8.50;;;4.50;;
77026;SDS011;65956;52.986;17.490;2023-05-10T03:51:05;10.00;;;4.60;;
77026;SDS011;65956;52.986;17.490;2023-05-10T03:53:30;8.10;;;4.50;;
77026;SDS011;65956;52.986;17.490;2023-05-10T03:55:56;7.70;;;4.00;;
77026;SDS011;65956;52.986;17.490;2023-05-10T03:58:23;7.90;;;4.30;;
77026;SDS011;65956;52.986;17.490;2023-05-10T04:00:49;7.00;;;3.40;;
77026;SDS011;65956;52.986;17.490;2023-05-10T04:03:16;13.70;;;4.40;;
77026;SDS011;65956;52.986;17.490;2023-05-10T04:05:42;10.20;;;4.10;;
77026;SDS011;65956;52.986;17.490;2023-05-10T04:08:08;10.30;;;4.30;;
77026;SDS011;65956;52.986;17.490;2023-05-10T04:10:35;8.30;;;3.60;;
77026;SDS011;65956;52.986;17.490;2023-05-10T04:13:01;9.40;;;3.80;;
77026;SDS011;65956;52.986;17.490;2023-05-10T04:15:27;7.00;;;4.00;;
77026;SDS011;65956;52.986;17.490;2023-05-10T04:17:52;7.70;;;3.60;;
77026;SDS011;65956;52.986;17.490;2023-05-10T04:20:19;7.10;;;3.70;;
77026;SDS011;65956;52.986;17.490;2023-05-10T04:22:45;8.10;;;4.20;;
77026;SDS011;65956;52.986;17.490;2023-05-10T04:25:11;7.50;;;4.20;;
77026;SDS011;65956;52.986;17.490;2023-05-10T04:27:37;7.40;;;3.40;;
77026;SDS011;65956;52.986;17.490;2023-05-10T04:30:03;7.00;;;3.90;;
77026;SDS011;65956;52.986;17.490;2023-05-10T04:32:29;7.10;;;3.70;;
77026;SDS011;65956;52.986;17.490;2023-05-10T04:34:55;9.20;;;3.90;;
77026;SDS011;65956;52.986;17.490;2023-05-10T04:37:21;9.80;;;4.70;;
77026;SDS011;65956;52.986;17.490;2023-05-10T04:39:48;8.00;;;3.90;;
77026;SDS011;65956;52.986;17.490;2023-05-10T04:42:14;6.70;;;3.50;;
77026;SDS011;65956;52.986;17.490;2023-05-10T04:44:41;7.10;;;3.50;;
77026;SDS011;65956;52.986;17.490;2023-05-10T04:47:06;7.60;;;3.30;;
77026;SDS011;65956;52.986;17.490;2023-05-10T04:49:32;8.90;;;4.10;;
77026;SDS011;65956;52.986;17.490;2023-05-10T04:51:58;8.30;;;3.80;;
77026;SDS011;65956;52.986;17.490;2023-05-10T04:54:24;7.40;;;3.70;;
77026;SDS011;65956;52.986;17.490;2023-05-10T04:56:51;6.20;;;3.70;;
77026;SDS011;65956;52.986;17.490;2023-05-10T04:59:16;7.10;;;3.90;;
77026;SDS011;65956;52.986;17.490;2023-05-10T05:01:42;7.70;;;3.80;;
77026;SDS011;65956;52.986;17.490;2023-05-10T05:04:08;8.80;;;3.90;;
77026;SDS011;65956;52.986;17.490;2023-05-10T05:06:34;7.80;;;3.90;;
77026;SDS011;65956;52.986;17.490;2023-05-10T05:09:00;8.70;;;3.90;;
77026;SDS011;65956;52.986;17.490;2023-05-10T05:11:26;7.60;;;3.60;;
77026;SDS011;65956;52.986;17.490;2023-05-10T05:13:52;8.00;;;3.80;;
77026;SDS011;65956;52.986;17.490;2023-05-10T05:16:19;8.20;;;3.90;;
77026;SDS011;65956;52.986;17.490;2023-05-10T05:18:45;6.90;;;3.30;;
77026;SDS011;65956;52.986;17.490;2023-05-10T05:21:17;8.10;;;4.00;;
77026;SDS011;65956;52.986;17.490;2023-05-10T05:23:44;8.40;;;3.70;;
77026;SDS011;65956;52.986;17.490;2023-05-10T05:26:11;6.40;;;3.50;;
77026;SDS011;65956;52.986;17.490;2023-05-10T05:28:37;7.10;;;3.60;;
77026;SDS011;65956;52.986;17.490;2023-05-10T05:31:06;8.10;;;3.60;;
77026;SDS011;65956;52.986;17.490;2023-05-10T05:33:33;6.90;;;4.10;;
77026;SDS011;65956;52.986;17.490;2023-05-10T05:36:00;6.30;;;3.40;;
77026;SDS011;65956;52.986;17.490;2023-05-10T05:38:27;8.90;;;3.90;;
77026;SDS011;65956;52.986;17.490;2023-05-10T05:40:53;6.40;;;3.60;;
77026;SDS011;65956;52.986;17.490;2023-05-10T05:43:19;6.40;;;3.70;;
77026;SDS011;65956;52.986;17.490;2023-05-10T05:45:45;8.60;;;4.10;;
77026;SDS011;65956;52.986;17.490;2023-05-10T05:48:11;7.90;;;3.80;;
77026;SDS011;65956;52.986;17.490;2023-05-10T05:50:37;6.30;;;3.30;;
77026;SDS011;65956;52.986;17.490;2023-05-10T05:53:03;8.10;;;4.30;;
77026;SDS011;65956;52.986;17.490;2023-05-10T05:55:29;9.10;;;3.80;;
77026;SDS011;65956;52.986;17.490;2023-05-10T05:57:57;7.10;;;3.40;;
77026;SDS011;65956;52.986;17.490;2023-05-10T06:00:24;6.90;;;3.70;;
77026;SDS011;65956;52.986;17.490;2023-05-10T06:02:50;10.50;;;3.60;;
77026;SDS011;65956;52.986;17.490;2023-05-10T06:05:16;8.40;;;3.90;;
77026;SDS011;65956;52.986;17.490;2023-05-10T06:07:42;8.60;;;3.90;;
77026;SDS011;65956;52.986;17.490;2023-05-10T06:10:08;8.10;;;3.40;;
77026;SDS011;65956;52.986;17.490;2023-05-10T06:12:35;8.60;;;3.70;;
77026;SDS011;65956;52.986;17.490;2023-05-10T06:15:01;6.70;;;3.60;;
77026;SDS011;65956;52.986;17.490;2023-05-10T06:17:28;7.60;;;3.50;;
77026;SDS011;65956;52.986;17.490;2023-05-10T06:19:54;10.20;;;4.00;;
77026;SDS011;65956;52.986;17.490;2023-05-10T06:22:20;11.50;;;4.40;;
77026;SDS011;65956;52.986;17.490;2023-05-10T06:24:48;7.20;;;3.90;;
77026;SDS011;65956;52.986;17.490;2023-05-10T06:27:14;7.60;;;3.50;;
77026;SDS011;65956;52.986;17.490;2023-05-10T06:29:40;7.10;;;3.80;;
77026;SDS011;65956;52.986;17.490;2023-05-10T06:32:06;6.40;;;3.50;;
77026;SDS011;65956;52.986;17.490;2023-05-10T06:34:32;7.90;;;3.40;;
77026;SDS011;65956;52.986;17.490;2023-05-10T06:36:58;8.30;;;3.70;;
77026;SDS011;65956;52.986;17.490;2023-05-10T06:39:24;7.30;;;3.50;;
77026;SDS011;65956;52.986;17.490;2023-05-10T06:41:50;5.70;;;3.20;;
77026;SDS011;65956;52.986;17.490;2023-05-10T06:44:18;7.20;;;3.50;;
77026;SDS011;65956;52.986;17.490;2023-05-10T06:46:44;7.50;;;3.70;;
77026;SDS011;65956;52.986;17.490;2023-05-10T06:49:10;5.90;;;3.30;;
77026;SDS011;65956;52.986;17.490;2023-05-10T06:51:36;8.10;;;3.70;;
77026;SDS011;65956;52.986;17.490;2023-05-10T06:54:02;5.00;;;3.50;;
77026;SDS011;65956;52.986;17.490;2023-05-10T06:56:28;7.80;;;3.50;;
77026;SDS011;65956;52.986;17.490;2023-05-10T06:58:54;6.00;;;3.10;;
77026;SDS011;65956;52.986;17.490;2023-05-10T07:01:21;6.30;;;3.20;;
77026;SDS011;65956;52.986;17.490;2023-05-10T07:03:47;5.90;;;3.30;;
77026;SDS011;65956;52.986;17.490;2023-05-10T07:06:13;6.50;;;3.50;;
77026;SDS011;65956;52.986;17.490;2023-05-10T07:08:39;7.30;;;3.40;;
77026;SDS011;65956;52.986;17.490;2023-05-10T07:11:05;5.90;;;3.10;;
77026;SDS011;65956;52.986;17.490;2023-05-10T07:16:02;5.80;;;3.40;;
77026;SDS011;65956;52.986;17.490;2023-05-10T07:18:28;7.70;;;3.20;;
77026;SDS011;65956;52.986;17.490;2023-05-10T07:20:54;7.50;;;3.50;;
77026;SDS011;65956;52.986;17.490;2023-05-10T07:23:20;6.50;;;3.10;;
77026;SDS011;65956;52.986;17.490;2023-05-10T07:25:47;6.70;;;3.10;;
77026;SDS011;65956;52.986;17.490;2023-05-10T07:28:14;7.10;;;3.30;;
77026;SDS011;65956;52.986;17.490;2023-05-10T07:30:41;6.30;;;3.20;;
77026;SDS011;65956;52.986;17.490;2023-05-10T07:33:09;5.30;;;2.80;;
77026;SDS011;65956;52.986;17.490;2023-05-10T07:35:36;6.10;;;3.00;;
77026;SDS011;65956;52.986;17.490;2023-05-10T07:38:02;5.00;;;3.40;;
77026;SDS011;65956;52.986;17.490;2023-05-10T07:40:28;7.10;;;2.70;;
77026;SDS011;65956;52.986;17.490;2023-05-10T07:42:55;6.40;;;2.90;;
77026;SDS011;65956;52.986;17.490;2023-05-10T07:45:21;5.70;;;2.90;;
77026;SDS011;65956;52.986;17.490;2023-05-10T07:47:49;6.50;;;3.10;;
77026;SDS011;65956;52.986;17.490;2023-05-10T07:50:15;5.70;;;2.80;;
77026;SDS011;65956;52.986;17.490;2023-05-10T07:52:41;4.50;;;2.70;;
77026;SDS011;65956;52.986;17.490;2023-05-10T07:55:08;5.30;;;2.90;;
77026;SDS011;65956;52.986;17.490;2023-05-10T07:57:34;5.60;;;3.10;;
77026;SDS011;65956;52.986;17.490;2023-05-10T08:00:00;6.50;;;3.00;;
77026;SDS011;65956;52.986;17.490;2023-05-10T08:02:26;5.60;;;2.70;;
77026;SDS011;65956;52.986;17.490;2023-05-10T08:04:52;5.30;;;2.80;;
77026;SDS011;65956;52.986;17.490;2023-05-10T08:07:18;6.80;;;3.40;;
77026;SDS011;65956;52.986;17.490;2023-05-10T08:09:44;7.00;;;3.30;;
77026;SDS011;65956;52.986;17.490;2023-05-10T08:12:10;4.90;;;3.10;;
77026;SDS011;65956;52.986;17.490;2023-05-10T08:14:36;5.50;;;2.90;;
77026;SDS011;65956;52.986;17.490;2023-05-10T08:17:03;5.70;;;3.10;;
77026;SDS011;65956;52.986;17.490;2023-05-10T08:19:29;4.60;;;2.60;;
77026;SDS011;65956;52.986;17.490;2023-05-10T10:50:43;4.00;;;2.10;;
77026;SDS011;65956;52.986;17.490;2023-05-10T10:53:11;4.40;;;2.40;;
77026;SDS011;65956;52.986;17.490;2023-05-10T10:55:44;4.20;;;2.10;;
77026;SDS011;65956;52.986;17.490;2023-05-10T10:58:28;4.40;;;2.30;;
77026;SDS011;65956;52.986;17.490;2023-05-10T11:03:38;4.00;;;2.30;;
77026;SDS011;65956;52.986;17.490;2023-05-10T11:06:04;4.50;;;2.40;;
77026;SDS011;65956;52.986;17.490;2023-05-10T11:08:33;6.60;;;2.30;;
77026;SDS011;65956;52.986;17.490;2023-05-10T11:11:06;7.10;;;2.90;;
77026;SDS011;65956;52.986;17.490;2023-05-10T11:21:19;6.30;;;2.60;;
77026;SDS011;65956;52.986;17.490;2023-05-10T11:23:51;4.50;;;2.60;;
77026;SDS011;65956;52.986;17.490;2023-05-10T11:26:33;5.00;;;2.70;;
77026;SDS011;65956;52.986;17.490;2023-05-10T11:29:09;4.20;;;2.40;;
77026;SDS011;65956;52.986;17.490;2023-05-10T11:31:35;7.80;;;2.50;;
77026;SDS011;65956;52.986;17.490;2023-05-10T11:34:09;6.30;;;2.70;;
77026;SDS011;65956;52.986;17.490;2023-05-10T11:36:35;5.80;;;2.40;;
77026;SDS011;65956;52.986;17.490;2023-05-10T11:39:03;6.10;;;2.50;;
77026;SDS011;65956;52.986;17.490;2023-05-10T11:41:30;4.20;;;2.30;;
77026;SDS011;65956;52.986;17.490;2023-05-10T11:43:57;4.20;;;2.20;;
77026;SDS011;65956;52.986;17.490;2023-05-10T11:46:24;6.50;;;3.10;;
77026;SDS011;65956;52.986;17.490;2023-05-10T11:48:53;6.30;;;2.80;;
77026;SDS011;65956;52.986;17.490;2023-05-10T11:51:23;9.20;;;2.90;;
77026;SDS011;65956;52.986;17.490;2023-05-10T11:53:52;6.20;;;2.60;;
77026;SDS011;65956;52.986;17.490;2023-05-10T11:56:19;6.30;;;3.20;;
77026;SDS011;65956;52.986;17.490;2023-05-10T11:58:51;7.60;;;2.70;;
77026;SDS011;65956;52.986;17.490;2023-05-10T12:01:20;6.80;;;2.80;;
77026;SDS011;65956;52.986;17.490;2023-05-10T12:03:47;5.00;;;2.40;;
77026;SDS011;65956;52.986;17.490;2023-05-10T12:06:13;5.90;;;2.60;;
77026;SDS011;65956;52.986;17.490;2023-05-10T12:08:43;7.00;;;2.40;;
77026;SDS011;65956;52.986;17.490;2023-05-10T12:11:12;5.00;;;2.40;;
77026;SDS011;65956;52.986;17.490;2023-05-10T12:13:40;4.60;;;2.40;;
77026;SDS011;65956;52.986;17.490;2023-05-10T12:16:14;8.70;;;2.30;;
77026;SDS011;65956;52.986;17.490;2023-05-10T12:18:45;5.40;;;2.30;;
77026;SDS011;65956;52.986;17.490;2023-05-10T12:21:14;4.60;;;2.60;;
77026;SDS011;65956;52.986;17.490;2023-05-10T12:23:41;4.70;;;2.40;;
77026;SDS011;65956;52.986;17.490;2023-05-10T12:26:10;5.30;;;2.40;;
77026;SDS011;65956;52.986;17.490;2023-05-10T12:28:36;5.40;;;2.20;;
77026;SDS011;65956;52.986;17.490;2023-05-10T12:31:03;4.50;;;2.50;;
77026;SDS011;65956;52.986;17.490;2023-05-10T12:33:40;7.30;;;2.40;;
77026;SDS011;65956;52.986;17.490;2023-05-10T12:36:08;6.30;;;2.30;;
77026;SDS011;65956;52.986;17.490;2023-05-10T12:38:36;5.30;;;2.40;;
77026;SDS011;65956;52.986;17.490;2023-05-10T12:41:12;8.60;;;2.20;;
77026;SDS011;65956;52.986;17.490;2023-05-10T12:43:40;5.20;;;2.30;;
77026;SDS011;65956;52.986;17.490;2023-05-10T12:46:07;5.80;;;2.40;;
77026;SDS011;65956;52.986;17.490;2023-05-10T12:48:35;4.80;;;2.50;;
77026;SDS011;65956;52.986;17.490;2023-05-10T12:51:03;5.30;;;2.30;;
77026;SDS011;65956;52.986;17.490;2023-05-10T12:53:30;3.60;;;2.40;;
77026;SDS011;65956;52.986;17.490;2023-05-10T12:55:56;4.60;;;2.30;;
77026;SDS011;65956;52.986;17.490;2023-05-10T12:58:23;7.00;;;2.50;;
77026;SDS011;65956;52.986;17.490;2023-05-10T13:00:49;6.90;;;2.60;;
77026;SDS011;65956;52.986;17.490;2023-05-10T13:03:17;6.60;;;2.60;;
77026;SDS011;65956;52.986;17.490;2023-05-10T13:05:43;4.70;;;2.60;;
77026;SDS011;65956;52.986;17.490;2023-05-10T13:08:09;6.40;;;2.50;;
77026;SDS011;65956;52.986;17.490;2023-05-10T13:10:35;5.80;;;2.70;;
77026;SDS011;65956;52.986;17.490;2023-05-10T13:13:01;5.30;;;2.30;;
77026;SDS011;65956;52.986;17.490;2023-05-10T13:15:27;5.90;;;2.70;;
77026;SDS011;65956;52.986;17.490;2023-05-10T13:17:53;6.70;;;2.80;;
77026;SDS011;65956;52.986;17.490;2023-05-10T13:20:20;5.30;;;2.70;;
77026;SDS011;65956;52.986;17.490;2023-05-10T13:22:46;4.90;;;2.50;;
77026;SDS011;65956;52.986;17.490;2023-05-10T13:25:12;6.40;;;2.90;;
77026;SDS011;65956;52.986;17.490;2023-05-10T13:27:41;6.80;;;2.70;;
77026;SDS011;65956;52.986;17.490;2023-05-10T13:30:07;6.70;;;2.60;;
77026;SDS011;65956;52.986;17.490;2023-05-10T13:32:34;3.60;;;2.30;;
77026;SDS011;65956;52.986;17.490;2023-05-10T13:35:01;4.30;;;2.00;;
77026;SDS011;65956;52.986;17.490;2023-05-10T13:37:29;6.20;;;2.60;;
77026;SDS011;65956;52.986;17.490;2023-05-10T13:39:55;7.70;;;2.60;;
77026;SDS011;65956;52.986;17.490;2023-05-10T13:42:21;4.90;;;2.20;;
77026;SDS011;65956;52.986;17.490;2023-05-10T13:44:51;5.20;;;2.10;;
77026;SDS011;65956;52.986;17.490;2023-05-10T13:47:17;6.20;;;2.30;;
77026;SDS011;65956;52.986;17.490;2023-05-10T13:49:43;5.00;;;2.10;;
77026;SDS011;65956;52.986;17.490;2023-05-10T13:52:09;8.30;;;2.60;;
77026;SDS011;65956;52.986;17.490;2023-05-10T13:54:36;5.60;;;2.50;;
77026;SDS011;65956;52.986;17.490;2023-05-10T13:57:03;5.90;;;2.40;;
77026;SDS011;65956;52.986;17.490;2023-05-10T13:59:30;6.10;;;2.30;;
77026;SDS011;65956;52.986;17.490;2023-05-10T14:01:59;4.60;;;2.30;;
77026;SDS011;65956;52.986;17.490;2023-05-10T14:04:28;5.00;;;2.10;;
77026;SDS011;65956;52.986;17.490;2023-05-10T14:06:54;4.80;;;2.30;;
77026;SDS011;65956;52.986;17.490;2023-05-10T14:09:20;4.60;;;2.20;;
77026;SDS011;65956;52.986;17.490;2023-05-10T14:11:46;6.10;;;2.20;;
77026;SDS011;65956;52.986;17.490;2023-05-10T14:14:12;5.60;;;2.60;;
77026;SDS011;65956;52.986;17.490;2023-05-10T14:16:42;4.50;;;2.30;;
77026;SDS011;65956;52.986;17.490;2023-05-10T14:19:10;6.10;;;2.30;;
77026;SDS011;65956;52.986;17.490;2023-05-10T14:21:36;5.90;;;2.60;;
77026;SDS011;65956;52.986;17.490;2023-05-10T14:24:02;5.00;;;2.40;;
77026;SDS011;65956;52.986;17.490;2023-05-10T14:26:29;5.20;;;2.30;;
77026;SDS011;65956;52.986;17.490;2023-05-10T14:28:55;5.60;;;2.20;;
77026;SDS011;65956;52.986;17.490;2023-05-10T14:31:20;4.50;;;2.40;;
77026;SDS011;65956;52.986;17.490;2023-05-10T14:33:47;4.00;;;2.20;;
77026;SDS011;65956;52.986;17.490;2023-05-10T14:36:13;5.80;;;2.30;;
77026;SDS011;65956;52.986;17.490;2023-05-10T14:38:39;4.50;;;2.00;;
77026;SDS011;65956;52.986;17.490;2023-05-10T14:41:06;4.40;;;2.10;;
77026;SDS011;65956;52.986;17.490;2023-05-10T14:43:32;5.50;;;2.20;;
77026;SDS011;65956;52.986;17.490;2023-05-10T14:45:58;4.70;;;2.20;;
77026;SDS011;65956;52.986;17.490;2023-05-10T14:48:24;7.80;;;2.70;;
77026;SDS011;65956;52.986;17.490;2023-05-10T14:50:50;6.40;;;2.60;;
77026;SDS011;65956;52.986;17.490;2023-05-10T14:53:18;5.10;;;2.20;;
77026;SDS011;65956;52.986;17.490;2023-05-10T14:55:44;5.10;;;2.30;;
77026;SDS011;65956;52.986;17.490;2023-05-10T14:58:10;5.20;;;2.50;;
77026;SDS011;65956;52.986;17.490;2023-05-10T15:00:36;5.20;;;2.20;;
77026;SDS011;65956;52.986;17.490;2023-05-10T15:03:01;5.30;;;2.30;;
77026;SDS011;65956;52.986;17.490;2023-05-10T15:05:27;4.50;;;2.60;;
77026;SDS011;65956;52.986;17.490;2023-05-10T15:07:53;5.30;;;2.50;;
77026;SDS011;65956;52.986;17.490;2023-05-10T15:10:19;5.10;;;2.10;;
77026;SDS011;65956;52.986;17.490;2023-05-10T15:12:45;5.10;;;2.20;;
77026;SDS011;65956;52.986;17.490;2023-05-10T15:15:11;5.40;;;2.10;;
77026;SDS011;65956;52.986;17.490;2023-05-10T15:17:37;4.40;;;2.20;;
77026;SDS011;65956;52.986;17.490;2023-05-10T15:20:03;4.40;;;2.40;;
77026;SDS011;65956;52.986;17.490;2023-05-10T15:22:30;5.60;;;2.10;;
77026;SDS011;65956;52.986;17.490;2023-05-10T15:24:57;6.10;;;2.20;;
77026;SDS011;65956;52.986;17.490;2023-05-10T15:27:25;4.30;;;2.60;;
77026;SDS011;65956;52.986;17.490;2023-05-10T15:29:52;6.50;;;2.20;;
77026;SDS011;65956;52.986;17.490;2023-05-10T15:32:18;4.60;;;1.90;;
77026;SDS011;65956;52.986;17.490;2023-05-10T15:34:44;3.50;;;2.20;;
77026;SDS011;65956;52.986;17.490;2023-05-10T15:37:10;6.60;;;3.20;;
77026;SDS011;65956;52.986;17.490;2023-05-10T15:39:36;6.20;;;2.20;;
77026;SDS011;65956;52.986;17.490;2023-05-10T15:42:02;4.50;;;2.20;;
77026;SDS011;65956;52.986;17.490;2023-05-10T15:44:29;6.00;;;2.30;;
77026;SDS011;65956;52.986;17.490;2023-05-10T15:46:55;4.80;;;2.20;;
77026;SDS011;65956;52.986;17.490;2023-05-10T15:49:21;3.90;;;2.10;;
77026;SDS011;65956;52.986;17.490;2023-05-10T15:51:47;4.40;;;2.00;;
77026;SDS011;65956;52.986;17.490;2023-05-10T15:54:14;4.40;;;2.20;;
77026;SDS011;65956;52.986;17.490;2023-05-10T15:56:40;5.20;;;2.20;;
77026;SDS011;65956;52.986;17.490;2023-05-10T15:59:06;5.00;;;2.20;;
77026;SDS011;65956;52.986;17.490;2023-05-10T16:01:33;3.80;;;1.80;;
77026;SDS011;65956;52.986;17.490;2023-05-10T16:03:59;5.30;;;2.30;;
77026;SDS011;65956;52.986;17.490;2023-05-10T16:06:25;5.00;;;2.30;;
77026;SDS011;65956;52.986;17.490;2023-05-10T16:08:51;5.30;;;2.40;;
77026;SDS011;65956;52.986;17.490;2023-05-10T16:11:17;3.60;;;2.10;;
77026;SDS011;65956;52.986;17.490;2023-05-10T16:13:43;3.60;;;2.00;;
77026;SDS011;65956;52.986;17.490;2023-05-10T16:16:09;4.00;;;2.00;;
77026;SDS011;65956;52.986;17.490;2023-05-10T16:18:35;4.90;;;2.10;;
77026;SDS011;65956;52.986;17.490;2023-05-10T16:21:01;5.30;;;2.00;;
77026;SDS011;65956;52.986;17.490;2023-05-10T16:23:28;4.40;;;2.20;;
77026;SDS011;65956;52.986;17.490;2023-05-10T16:25:55;5.00;;;2.40;;
77026;SDS011;65956;52.986;17.490;2023-05-10T16:28:21;5.60;;;3.00;;
77026;SDS011;65956;52.986;17.490;2023-05-10T16:30:47;4.70;;;2.80;;
77026;SDS011;65956;52.986;17.490;2023-05-10T16:33:13;5.60;;;2.50;;
77026;SDS011;65956;52.986;17.490;2023-05-10T16:35:39;6.20;;;2.40;;
77026;SDS011;65956;52.986;17.490;2023-05-10T16:38:06;5.40;;;2.50;;
77026;SDS011;65956;52.986;17.490;2023-05-10T16:40:32;4.50;;;2.30;;
77026;SDS011;65956;52.986;17.490;2023-05-10T16:42:58;5.30;;;2.20;;
77026;SDS011;65956;52.986;17.490;2023-05-10T16:45:24;4.50;;;1.90;;
77026;SDS011;65956;52.986;17.490;2023-05-10T16:47:51;4.60;;;2.20;;
77026;SDS011;65956;52.986;17.490;2023-05-10T16:50:20;6.10;;;2.30;;
77026;SDS011;65956;52.986;17.490;2023-05-10T16:52:46;8.40;;;4.20;;
77026;SDS011;65956;52.986;17.490;2023-05-10T16:55:12;4.60;;;2.30;;
77026;SDS011;65956;52.986;17.490;2023-05-10T16:57:38;5.70;;;2.30;;
77026;SDS011;65956;52.986;17.490;2023-05-10T17:00:04;7.30;;;2.10;;
77026;SDS011;65956;52.986;17.490;2023-05-10T17:02:30;6.20;;;2.10;;
77026;SDS011;65956;52.986;17.490;2023-05-10T17:04:56;6.70;;;2.40;;
77026;SDS011;65956;52.986;17.490;2023-05-10T17:07:22;6.90;;;2.30;;
77026;SDS011;65956;52.986;17.490;2023-05-10T17:09:48;5.90;;;2.30;;
77026;SDS011;65956;52.986;17.490;2023-05-10T17:12:15;5.70;;;2.10;;
77026;SDS011;65956;52.986;17.490;2023-05-10T17:14:41;7.40;;;2.20;;
77026;SDS011;65956;52.986;17.490;2023-05-10T17:17:08;6.50;;;2.30;;
77026;SDS011;65956;52.986;17.490;2023-05-10T17:19:34;16.30;;;11.10;;
77026;SDS011;65956;52.986;17.490;2023-05-10T17:22:00;6.70;;;2.70;;
77026;SDS011;65956;52.986;17.490;2023-05-10T17:24:25;8.00;;;2.40;;
77026;SDS011;65956;52.986;17.490;2023-05-10T17:26:54;4.60;;;2.40;;
77026;SDS011;65956;52.986;17.490;2023-05-10T17:29:22;6.80;;;2.20;;
77026;SDS011;65956;52.986;17.490;2023-05-10T17:31:48;5.00;;;2.40;;
77026;SDS011;65956;52.986;17.490;2023-05-10T17:34:14;5.10;;;2.60;;
77026;SDS011;65956;52.986;17.490;2023-05-10T17:36:40;4.00;;;2.10;;
77026;SDS011;65956;52.986;17.490;2023-05-10T17:39:06;6.00;;;2.50;;
77026;SDS011;65956;52.986;17.490;2023-05-10T17:41:32;6.90;;;2.30;;
77026;SDS011;65956;52.986;17.490;2023-05-10T17:43:58;6.10;;;2.40;;
77026;SDS011;65956;52.986;17.490;2023-05-10T17:46:24;10.50;;;2.60;;
77026;SDS011;65956;52.986;17.490;2023-05-10T17:48:49;5.50;;;2.50;;
77026;SDS011;65956;52.986;17.490;2023-05-10T17:51:15;6.00;;;2.50;;
77026;SDS011;65956;52.986;17.490;2023-05-10T17:53:41;5.90;;;2.50;;
77026;SDS011;65956;52.986;17.490;2023-05-10T17:56:07;6.40;;;2.50;;
77026;SDS011;65956;52.986;17.490;2023-05-10T17:58:34;7.10;;;4.00;;
77026;SDS011;65956;52.986;17.490;2023-05-10T18:01:03;6.30;;;2.30;;
77026;SDS011;65956;52.986;17.490;2023-05-10T18:03:29;8.90;;;3.50;;
77026;SDS011;65956;52.986;17.490;2023-05-10T18:05:55;9.90;;;5.80;;
77026;SDS011;65956;52.986;17.490;2023-05-10T18:08:21;8.10;;;2.70;;
77026;SDS011;65956;52.986;17.490;2023-05-10T18:10:51;6.20;;;2.20;;
77026;SDS011;65956;52.986;17.490;2023-05-10T18:13:17;5.70;;;2.60;;
77026;SDS011;65956;52.986;17.490;2023-05-10T18:15:43;4.10;;;2.10;;
77026;SDS011;65956;52.986;17.490;2023-05-10T18:18:09;5.90;;;2.20;;
77026;SDS011;65956;52.986;17.490;2023-05-10T18:20:36;5.10;;;2.60;;
77026;SDS011;65956;52.986;17.490;2023-05-10T18:23:02;7.40;;;2.30;;
77026;SDS011;65956;52.986;17.490;2023-05-10T18:25:28;6.60;;;2.70;;
77026;SDS011;65956;52.986;17.490;2023-05-10T18:27:54;7.90;;;2.20;;
77026;SDS011;65956;52.986;17.490;2023-05-10T18:30:20;6.40;;;2.40;;
77026;SDS011;65956;52.986;17.490;2023-05-10T18:32:48;5.40;;;2.20;;
77026;SDS011;65956;52.986;17.490;2023-05-10T18:35:14;8.50;;;2.60;;